sensor_id;sensor_type;location;lat;lon;timestamp;temperature;humidity
19000;DHT22;9633;50.980;13.850;2022-09-09T00:01:08;12.30;99.90
19000;DHT22;9633;50.980;13.850;2022-09-09T00:02:45;12.20;99.90
19000;DHT22;9633;50.980;13.850;2022-09-09T00:04:26;12.20;99.90
19000;DHT22;9633;50.980;13.850;2022-09-09T00:06:06;12.20;99.90
19000;DHT22;9633;50.980;13.850;2022-09-09T00:07:45;12.30;99.90
19000;DHT22;9633;50.980;13.850;2022-09-09T00:09:24;12.40;99.90
19000;DHT22;9633;50.980;13.850;2022-09-09T00:11:01;12.30;99.90
19000;DHT22;9633;50.980;13.850;2022-09-09T00:12:42;12.30;99.90
19000;DHT22;9633;50.980;13.850;2022-09-09T00:14:25;12.20;99.90
19000;DHT22;9633;50.980;13.850;2022-09-09T00:16:09;12.10;99.90
19000;DHT22;9633;50.980;13.850;2022-09-09T00:17:49;12.10;99.90
19000;DHT22;9633;50.980;13.850;2022-09-09T00:19:27;12.00;99.90
19000;DHT22;9633;50.980;13.850;2022-09-09T00:21:07;12.00;99.90
19000;DHT22;9633;50.980;13.850;2022-09-09T00:22:45;11.90;99.90
19000;DHT22;9633;50.980;13.850;2022-09-09T00:24:26;12.00;99.90
19000;DHT22;9633;50.980;13.850;2022-09-09T00:26:04;12.00;99.90
19000;DHT22;9633;50.980;13.850;2022-09-09T00:27:43;12.00;99.90
19000;DHT22;9633;50.980;13.850;2022-09-09T00:29:24;11.90;99.90
19000;DHT22;9633;50.980;13.850;2022-09-09T00:31:11;11.90;99.90
19000;DHT22;9633;50.980;13.850;2022-09-09T00:32:44;11.90;99.90
19000;DHT22;9633;50.980;13.850;2022-09-09T00:34:20;11.90;99.90
19000;DHT22;9633;50.980;13.850;2022-09-09T00:35:56;11.90;99.90
19000;DHT22;9633;50.980;13.850;2022-09-09T00:37:31;12.00;99.90
19000;DHT22;9633;50.980;13.850;2022-09-09T00:39:05;12.00;99.90
19000;DHT22;9633;50.980;13.850;2022-09-09T00:40:49;12.00;99.90
19000;DHT22;9633;50.980;13.850;2022-09-09T00:42:24;11.90;99.90
19000;DHT22;9633;50.980;13.850;2022-09-09T00:44:03;12.00;99.90
19000;DHT22;9633;50.980;13.850;2022-09-09T00:46:00;11.90;99.90
19000;DHT22;9633;50.980;13.850;2022-09-09T00:47:43;11.90;99.90
19000;DHT22;9633;50.980;13.850;2022-09-09T00:49:27;11.90;99.90
19000;DHT22;9633;50.980;13.850;2022-09-09T00:51:09;12.00;99.90
19000;DHT22;9633;50.980;13.850;2022-09-09T00:52:53;12.00;99.90
19000;DHT22;9633;50.980;13.850;2022-09-09T00:54:37;12.20;99.90
19000;DHT22;9633;50.980;13.850;2022-09-09T00:56:17;12.20;99.90
19000;DHT22;9633;50.980;13.850;2022-09-09T00:57:53;12.20;99.90
19000;DHT22;9633;50.980;13.850;2022-09-09T00:59:31;12.30;99.90
19000;DHT22;9633;50.980;13.850;2022-09-09T01:01:10;12.30;99.90
19000;DHT22;9633;50.980;13.850;2022-09-09T01:02:56;12.30;99.90
19000;DHT22;9633;50.980;13.850;2022-09-09T01:04:36;12.30;99.90
19000;DHT22;9633;50.980;13.850;2022-09-09T01:06:15;12.40;99.90
19000;DHT22;9633;50.980;13.850;2022-09-09T01:07:49;12.50;99.90
19000;DHT22;9633;50.980;13.850;2022-09-09T01:09:33;12.50;99.90
19000;DHT22;9633;50.980;13.850;2022-09-09T01:11:21;12.60;99.90
19000;DHT22;9633;50.980;13.850;2022-09-09T01:12:56;12.70;99.90
19000;DHT22;9633;50.980;13.850;2022-09-09T01:14:40;12.60;99.90
19000;DHT22;9633;50.980;13.850;2022-09-09T01:16:14;12.50;99.90
19000;DHT22;9633;50.980;13.850;2022-09-09T01:17:58;12.40;99.90
19000;DHT22;9633;50.980;13.850;2022-09-09T01:19:47;12.30;99.90
19000;DHT22;9633;50.980;13.850;2022-09-09T01:21:27;12.20;99.90
19000;DHT22;9633;50.980;13.850;2022-09-09T01:25:30;12.10;99.90
19000;DHT22;9633;50.980;13.850;2022-09-09T01:27:14;12.00;99.90
19000;DHT22;9633;50.980;13.850;2022-09-09T01:28:48;11.90;99.90
19000;DHT22;9633;50.980;13.850;2022-09-09T01:30:28;11.90;99.90
19000;DHT22;9633;50.980;13.850;2022-09-09T01:32:37;12.00;99.90
19000;DHT22;9633;50.980;13.850;2022-09-09T01:34:12;12.00;99.90
19000;DHT22;9633;50.980;13.850;2022-09-09T01:35:50;12.00;99.90
19000;DHT22;9633;50.980;13.850;2022-09-09T01:37:28;12.10;99.90
19000;DHT22;9633;50.980;13.850;2022-09-09T01:39:01;12.20;99.90
19000;DHT22;9633;50.980;13.850;2022-09-09T01:40:34;12.20;99.90
19000;DHT22;9633;50.980;13.850;2022-09-09T01:42:09;12.10;99.90
19000;DHT22;9633;50.980;13.850;2022-09-09T01:43:46;12.10;99.90
19000;DHT22;9633;50.980;13.850;2022-09-09T01:45:18;12.10;99.90
19000;DHT22;9633;50.980;13.850;2022-09-09T01:46:51;12.20;99.90
19000;DHT22;9633;50.980;13.850;2022-09-09T01:48:26;12.10;99.90
19000;DHT22;9633;50.980;13.850;2022-09-09T01:50:13;12.20;99.90
19000;DHT22;9633;50.980;13.850;2022-09-09T01:51:50;12.10;99.90
19000;DHT22;9633;50.980;13.850;2022-09-09T01:53:30;12.10;99.90
19000;DHT22;9633;50.980;13.850;2022-09-09T01:55:03;12.10;99.90
19000;DHT22;9633;50.980;13.850;2022-09-09T01:56:50;12.10;99.90
19000;DHT22;9633;50.980;13.850;2022-09-09T01:58:32;12.20;99.90
19000;DHT22;9633;50.980;13.850;2022-09-09T02:00:10;12.20;99.90
19000;DHT22;9633;50.980;13.850;2022-09-09T02:01:57;12.20;99.90
19000;DHT22;9633;50.980;13.850;2022-09-09T02:03:35;12.20;99.90
19000;DHT22;9633;50.980;13.850;2022-09-09T02:05:23;12.10;99.90
19000;DHT22;9633;50.980;13.850;2022-09-09T02:07:00;12.10;99.90
19000;DHT22;9633;50.980;13.850;2022-09-09T02:08:42;12.10;99.90
19000;DHT22;9633;50.980;13.850;2022-09-09T02:10:19;12.00;99.90
19000;DHT22;9633;50.980;13.850;2022-09-09T02:12:08;12.00;99.90
19000;DHT22;9633;50.980;13.850;2022-09-09T02:13:57;11.90;99.90
19000;DHT22;9633;50.980;13.850;2022-09-09T02:15:34;11.90;99.90
19000;DHT22;9633;50.980;13.850;2022-09-09T02:17:15;11.90;99.90
19000;DHT22;9633;50.980;13.850;2022-09-09T02:19:14;11.90;99.90
19000;DHT22;9633;50.980;13.850;2022-09-09T02:21:10;12.00;99.90
19000;DHT22;9633;50.980;13.850;2022-09-09T02:22:48;12.00;99.90
19000;DHT22;9633;50.980;13.850;2022-09-09T02:24:25;12.10;99.90
19000;DHT22;9633;50.980;13.850;2022-09-09T02:26:12;12.10;99.90
19000;DHT22;9633;50.980;13.850;2022-09-09T02:27:54;12.10;99.90
19000;DHT22;9633;50.980;13.850;2022-09-09T02:29:29;12.10;99.90
19000;DHT22;9633;50.980;13.850;2022-09-09T02:31:06;12.10;99.90
19000;DHT22;9633;50.980;13.850;2022-09-09T02:32:46;12.10;99.90
19000;DHT22;9633;50.980;13.850;2022-09-09T02:34:23;12.10;99.90
19000;DHT22;9633;50.980;13.850;2022-09-09T02:36:00;12.10;99.90
19000;DHT22;9633;50.980;13.850;2022-09-09T02:37:38;12.00;99.90
19000;DHT22;9633;50.980;13.850;2022-09-09T02:39:11;11.90;99.90
19000;DHT22;9633;50.980;13.850;2022-09-09T02:40:45;11.90;99.90
19000;DHT22;9633;50.980;13.850;2022-09-09T02:42:18;11.90;99.90
19000;DHT22;9633;50.980;13.850;2022-09-09T02:43:51;11.80;99.90
19000;DHT22;9633;50.980;13.850;2022-09-09T02:45:29;11.90;99.90
19000;DHT22;9633;50.980;13.850;2022-09-09T02:47:22;11.90;99.90
19000;DHT22;9633;50.980;13.850;2022-09-09T02:49:00;11.80;99.90
19000;DHT22;9633;50.980;13.850;2022-09-09T02:50:45;11.80;99.90
19000;DHT22;9633;50.980;13.850;2022-09-09T02:52:29;11.80;99.90
19000;DHT22;9633;50.980;13.850;2022-09-09T02:54:10;11.80;99.90
19000;DHT22;9633;50.980;13.850;2022-09-09T02:55:51;11.80;99.90
19000;DHT22;9633;50.980;13.850;2022-09-09T02:57:29;11.80;99.90
19000;DHT22;9633;50.980;13.850;2022-09-09T02:59:04;11.90;99.90
19000;DHT22;9633;50.980;13.850;2022-09-09T03:00:39;11.80;99.90
19000;DHT22;9633;50.980;13.850;2022-09-09T03:02:14;11.80;99.90
19000;DHT22;9633;50.980;13.850;2022-09-09T03:03:50;11.80;99.90
19000;DHT22;9633;50.980;13.850;2022-09-09T03:05:22;11.70;99.90
19000;DHT22;9633;50.980;13.850;2022-09-09T03:06:56;11.70;99.90
19000;DHT22;9633;50.980;13.850;2022-09-09T03:08:29;11.70;99.90
19000;DHT22;9633;50.980;13.850;2022-09-09T03:10:04;11.70;99.90
19000;DHT22;9633;50.980;13.850;2022-09-09T03:11:37;11.70;99.90
19000;DHT22;9633;50.980;13.850;2022-09-09T03:13:11;11.80;99.90
19000;DHT22;9633;50.980;13.850;2022-09-09T03:14:47;11.80;99.90
19000;DHT22;9633;50.980;13.850;2022-09-09T03:16:20;11.80;99.90
19000;DHT22;9633;50.980;13.850;2022-09-09T03:17:56;11.80;99.90
19000;DHT22;9633;50.980;13.850;2022-09-09T03:19:29;11.80;99.90
19000;DHT22;9633;50.980;13.850;2022-09-09T03:21:02;11.80;99.90
19000;DHT22;9633;50.980;13.850;2022-09-09T03:22:35;11.80;99.90
19000;DHT22;9633;50.980;13.850;2022-09-09T03:24:08;11.80;99.90
19000;DHT22;9633;50.980;13.850;2022-09-09T03:25:46;11.70;99.90
19000;DHT22;9633;50.980;13.850;2022-09-09T03:27:22;11.60;99.90
19000;DHT22;9633;50.980;13.850;2022-09-09T03:28:56;11.50;99.90
19000;DHT22;9633;50.980;13.850;2022-09-09T03:30:29;11.50;99.90
19000;DHT22;9633;50.980;13.850;2022-09-09T03:32:02;11.50;99.90
19000;DHT22;9633;50.980;13.850;2022-09-09T03:33:37;11.50;99.90
19000;DHT22;9633;50.980;13.850;2022-09-09T03:35:11;11.50;99.90
19000;DHT22;9633;50.980;13.850;2022-09-09T03:36:44;11.50;99.90
19000;DHT22;9633;50.980;13.850;2022-09-09T03:38:18;11.50;99.90
19000;DHT22;9633;50.980;13.850;2022-09-09T03:39:51;11.50;99.90
19000;DHT22;9633;50.980;13.850;2022-09-09T03:41:25;11.50;99.90
19000;DHT22;9633;50.980;13.850;2022-09-09T03:42:58;11.60;99.90
19000;DHT22;9633;50.980;13.850;2022-09-09T03:44:31;11.60;99.90
19000;DHT22;9633;50.980;13.850;2022-09-09T03:46:03;11.70;99.90
19000;DHT22;9633;50.980;13.850;2022-09-09T03:47:37;11.70;99.90
19000;DHT22;9633;50.980;13.850;2022-09-09T03:49:12;11.70;99.90
19000;DHT22;9633;50.980;13.850;2022-09-09T03:50:46;11.70;99.90
19000;DHT22;9633;50.980;13.850;2022-09-09T03:52:19;11.70;99.90
19000;DHT22;9633;50.980;13.850;2022-09-09T03:53:56;11.70;99.90
19000;DHT22;9633;50.980;13.850;2022-09-09T03:55:31;11.70;99.90
19000;DHT22;9633;50.980;13.850;2022-09-09T03:57:04;11.70;99.90
19000;DHT22;9633;50.980;13.850;2022-09-09T03:58:38;11.70;99.90
19000;DHT22;9633;50.980;13.850;2022-09-09T04:00:13;11.60;99.90
19000;DHT22;9633;50.980;13.850;2022-09-09T04:01:54;11.70;99.90
19000;DHT22;9633;50.980;13.850;2022-09-09T04:03:29;11.70;99.90
19000;DHT22;9633;50.980;13.850;2022-09-09T04:05:04;11.70;99.90
19000;DHT22;9633;50.980;13.850;2022-09-09T04:06:38;11.70;99.90
19000;DHT22;9633;50.980;13.850;2022-09-09T04:08:11;11.80;99.90
19000;DHT22;9633;50.980;13.850;2022-09-09T04:09:43;11.80;99.90
19000;DHT22;9633;50.980;13.850;2022-09-09T04:11:18;11.80;99.90
19000;DHT22;9633;50.980;13.850;2022-09-09T04:12:54;11.80;99.90
19000;DHT22;9633;50.980;13.850;2022-09-09T04:14:26;11.70;99.90
19000;DHT22;9633;50.980;13.850;2022-09-09T04:16:02;11.70;99.90
19000;DHT22;9633;50.980;13.850;2022-09-09T04:17:38;11.70;99.90
19000;DHT22;9633;50.980;13.850;2022-09-09T04:19:11;11.70;99.90
19000;DHT22;9633;50.980;13.850;2022-09-09T04:20:48;11.70;99.90
19000;DHT22;9633;50.980;13.850;2022-09-09T04:22:24;11.60;99.90
19000;DHT22;9633;50.980;13.850;2022-09-09T04:23:58;11.60;99.90
19000;DHT22;9633;50.980;13.850;2022-09-09T04:25:31;11.60;99.90
19000;DHT22;9633;50.980;13.850;2022-09-09T04:27:05;11.70;99.90
19000;DHT22;9633;50.980;13.850;2022-09-09T04:28:40;11.70;99.90
19000;DHT22;9633;50.980;13.850;2022-09-09T04:30:20;11.70;99.90
19000;DHT22;9633;50.980;13.850;2022-09-09T04:31:53;11.70;99.90
19000;DHT22;9633;50.980;13.850;2022-09-09T04:33:27;11.80;99.90
19000;DHT22;9633;50.980;13.850;2022-09-09T04:34:59;11.80;99.90
19000;DHT22;9633;50.980;13.850;2022-09-09T04:36:33;11.80;99.90
19000;DHT22;9633;50.980;13.850;2022-09-09T04:38:09;11.80;99.90
19000;DHT22;9633;50.980;13.850;2022-09-09T04:39:43;11.80;99.90
19000;DHT22;9633;50.980;13.850;2022-09-09T04:41:17;11.90;99.90
19000;DHT22;9633;50.980;13.850;2022-09-09T04:42:53;11.90;99.90
19000;DHT22;9633;50.980;13.850;2022-09-09T04:44:27;11.90;99.90
19000;DHT22;9633;50.980;13.850;2022-09-09T04:46:01;12.00;99.90
19000;DHT22;9633;50.980;13.850;2022-09-09T04:47:34;12.00;99.90
19000;DHT22;9633;50.980;13.850;2022-09-09T04:49:07;12.00;99.90
19000;DHT22;9633;50.980;13.850;2022-09-09T04:50:54;12.10;99.90
19000;DHT22;9633;50.980;13.850;2022-09-09T04:52:29;12.20;99.90
19000;DHT22;9633;50.980;13.850;2022-09-09T04:54:02;12.20;99.90
19000;DHT22;9633;50.980;13.850;2022-09-09T04:55:35;12.30;99.90
19000;DHT22;9633;50.980;13.850;2022-09-09T04:57:10;12.30;99.90
19000;DHT22;9633;50.980;13.850;2022-09-09T04:58:49;12.40;99.90
19000;DHT22;9633;50.980;13.850;2022-09-09T05:00:25;12.40;99.90
19000;DHT22;9633;50.980;13.850;2022-09-09T05:01:59;12.50;99.90
19000;DHT22;9633;50.980;13.850;2022-09-09T05:03:33;12.50;99.90
19000;DHT22;9633;50.980;13.850;2022-09-09T05:05:09;12.60;99.90
19000;DHT22;9633;50.980;13.850;2022-09-09T05:06:43;12.80;99.90
19000;DHT22;9633;50.980;13.850;2022-09-09T05:08:19;13.30;99.90
19000;DHT22;9633;50.980;13.850;2022-09-09T05:09:52;13.90;99.90
19000;DHT22;9633;50.980;13.850;2022-09-09T05:11:27;14.20;99.90
19000;DHT22;9633;50.980;13.850;2022-09-09T05:13:19;14.20;99.90
19000;DHT22;9633;50.980;13.850;2022-09-09T05:14:52;14.00;99.90
19000;DHT22;9633;50.980;13.850;2022-09-09T05:16:26;14.00;99.90
19000;DHT22;9633;50.980;13.850;2022-09-09T05:18:01;14.40;99.90
19000;DHT22;9633;50.980;13.850;2022-09-09T05:19:36;14.70;99.90
19000;DHT22;9633;50.980;13.850;2022-09-09T05:21:09;14.60;99.90
19000;DHT22;9633;50.980;13.850;2022-09-09T05:22:42;14.60;99.90
19000;DHT22;9633;50.980;13.850;2022-09-09T05:24:17;14.40;99.90
19000;DHT22;9633;50.980;13.850;2022-09-09T05:25:56;14.40;99.90
19000;DHT22;9633;50.980;13.850;2022-09-09T05:27:29;14.20;99.90
19000;DHT22;9633;50.980;13.850;2022-09-09T05:29:04;14.10;99.90
19000;DHT22;9633;50.980;13.850;2022-09-09T05:30:37;14.10;99.90
19000;DHT22;9633;50.980;13.850;2022-09-09T05:32:11;14.00;99.90
19000;DHT22;9633;50.980;13.850;2022-09-09T05:33:48;14.00;99.90
19000;DHT22;9633;50.980;13.850;2022-09-09T05:35:22;14.00;99.90
19000;DHT22;9633;50.980;13.850;2022-09-09T05:36:55;14.10;99.90
19000;DHT22;9633;50.980;13.850;2022-09-09T05:38:30;14.40;99.90
19000;DHT22;9633;50.980;13.850;2022-09-09T05:40:06;14.70;99.90
19000;DHT22;9633;50.980;13.850;2022-09-09T05:41:40;15.00;99.90
19000;DHT22;9633;50.980;13.850;2022-09-09T05:43:13;15.00;99.90
19000;DHT22;9633;50.980;13.850;2022-09-09T05:44:46;14.90;99.90
19000;DHT22;9633;50.980;13.850;2022-09-09T05:46:21;14.80;99.90
19000;DHT22;9633;50.980;13.850;2022-09-09T05:47:57;14.80;99.90
19000;DHT22;9633;50.980;13.850;2022-09-09T05:49:31;14.70;99.90
19000;DHT22;9633;50.980;13.850;2022-09-09T05:51:06;14.80;99.90
19000;DHT22;9633;50.980;13.850;2022-09-09T05:52:40;15.00;99.90
19000;DHT22;9633;50.980;13.850;2022-09-09T05:54:13;15.10;99.90
19000;DHT22;9633;50.980;13.850;2022-09-09T05:55:58;15.10;99.90
19000;DHT22;9633;50.980;13.850;2022-09-09T05:57:32;15.00;99.90
19000;DHT22;9633;50.980;13.850;2022-09-09T05:59:06;14.90;99.90
19000;DHT22;9633;50.980;13.850;2022-09-09T06:00:39;14.80;99.90
19000;DHT22;9633;50.980;13.850;2022-09-09T06:02:12;14.80;99.90
19000;DHT22;9633;50.980;13.850;2022-09-09T06:03:47;14.80;99.90
19000;DHT22;9633;50.980;13.850;2022-09-09T06:05:21;14.90;99.90
19000;DHT22;9633;50.980;13.850;2022-09-09T06:06:54;15.00;99.90
19000;DHT22;9633;50.980;13.850;2022-09-09T06:08:28;15.10;99.90
19000;DHT22;9633;50.980;13.850;2022-09-09T06:10:01;15.20;99.90
19000;DHT22;9633;50.980;13.850;2022-09-09T06:11:37;15.20;99.90
19000;DHT22;9633;50.980;13.850;2022-09-09T06:13:11;15.30;99.90
19000;DHT22;9633;50.980;13.850;2022-09-09T06:14:45;15.40;99.90
19000;DHT22;9633;50.980;13.850;2022-09-09T06:16:20;15.60;99.90
19000;DHT22;9633;50.980;13.850;2022-09-09T06:17:55;15.50;99.90
19000;DHT22;9633;50.980;13.850;2022-09-09T06:19:28;15.70;99.90
19000;DHT22;9633;50.980;13.850;2022-09-09T06:21:05;15.80;99.90
19000;DHT22;9633;50.980;13.850;2022-09-09T06:22:39;15.90;99.90
19000;DHT22;9633;50.980;13.850;2022-09-09T06:24:13;16.10;99.90
19000;DHT22;9633;50.980;13.850;2022-09-09T06:25:49;16.70;99.90
19000;DHT22;9633;50.980;13.850;2022-09-09T06:27:24;17.20;99.90
19000;DHT22;9633;50.980;13.850;2022-09-09T06:28:59;17.60;99.90
19000;DHT22;9633;50.980;13.850;2022-09-09T06:30:34;17.80;99.90
19000;DHT22;9633;50.980;13.850;2022-09-09T06:32:07;18.10;99.90
19000;DHT22;9633;50.980;13.850;2022-09-09T06:33:41;18.30;99.90
19000;DHT22;9633;50.980;13.850;2022-09-09T06:35:16;18.30;99.90
19000;DHT22;9633;50.980;13.850;2022-09-09T06:36:49;18.30;99.90
19000;DHT22;9633;50.980;13.850;2022-09-09T06:38:23;18.40;99.90
19000;DHT22;9633;50.980;13.850;2022-09-09T06:39:58;18.30;99.90
19000;DHT22;9633;50.980;13.850;2022-09-09T06:41:32;18.20;99.90
19000;DHT22;9633;50.980;13.850;2022-09-09T06:43:08;18.30;99.90
19000;DHT22;9633;50.980;13.850;2022-09-09T06:44:45;18.40;99.90
19000;DHT22;9633;50.980;13.850;2022-09-09T06:46:30;18.60;99.90
19000;DHT22;9633;50.980;13.850;2022-09-09T06:48:05;19.10;99.90
19000;DHT22;9633;50.980;13.850;2022-09-09T06:49:38;19.60;99.90
19000;DHT22;9633;50.980;13.850;2022-09-09T06:51:15;20.00;99.90
19000;DHT22;9633;50.980;13.850;2022-09-09T06:52:49;20.00;99.90
19000;DHT22;9633;50.980;13.850;2022-09-09T06:54:24;19.80;99.90
19000;DHT22;9633;50.980;13.850;2022-09-09T06:55:58;19.80;99.90
19000;DHT22;9633;50.980;13.850;2022-09-09T06:57:32;19.80;99.90
19000;DHT22;9633;50.980;13.850;2022-09-09T06:59:12;19.80;99.90
19000;DHT22;9633;50.980;13.850;2022-09-09T07:00:45;19.60;99.90
19000;DHT22;9633;50.980;13.850;2022-09-09T07:02:18;19.50;99.90
19000;DHT22;9633;50.980;13.850;2022-09-09T07:03:54;19.50;99.90
19000;DHT22;9633;50.980;13.850;2022-09-09T07:05:27;19.60;99.90
19000;DHT22;9633;50.980;13.850;2022-09-09T07:07:00;19.50;99.90
19000;DHT22;9633;50.980;13.850;2022-09-09T07:08:34;19.50;99.90
19000;DHT22;9633;50.980;13.850;2022-09-09T07:10:08;19.50;99.90
19000;DHT22;9633;50.980;13.850;2022-09-09T07:11:43;19.40;99.90
19000;DHT22;9633;50.980;13.850;2022-09-09T07:13:17;19.20;99.90
19000;DHT22;9633;50.980;13.850;2022-09-09T07:14:52;19.00;99.90
19000;DHT22;9633;50.980;13.850;2022-09-09T07:16:25;18.80;99.90
19000;DHT22;9633;50.980;13.850;2022-09-09T07:18:01;18.50;99.90
19000;DHT22;9633;50.980;13.850;2022-09-09T07:19:35;18.30;99.90
19000;DHT22;9633;50.980;13.850;2022-09-09T07:21:10;18.30;99.90
19000;DHT22;9633;50.980;13.850;2022-09-09T07:22:45;18.20;99.90
19000;DHT22;9633;50.980;13.850;2022-09-09T07:24:19;18.10;99.90
19000;DHT22;9633;50.980;13.850;2022-09-09T07:25:52;18.30;99.90
19000;DHT22;9633;50.980;13.850;2022-09-09T07:27:24;18.40;99.90
19000;DHT22;9633;50.980;13.850;2022-09-09T07:28:58;18.90;99.90
19000;DHT22;9633;50.980;13.850;2022-09-09T07:30:32;19.30;99.90
19000;DHT22;9633;50.980;13.850;2022-09-09T07:32:06;19.70;99.90
19000;DHT22;9633;50.980;13.850;2022-09-09T07:33:42;20.10;99.90
19000;DHT22;9633;50.980;13.850;2022-09-09T07:35:16;20.40;99.90
19000;DHT22;9633;50.980;13.850;2022-09-09T07:36:49;20.70;99.90
19000;DHT22;9633;50.980;13.850;2022-09-09T07:38:23;21.10;99.90
19000;DHT22;9633;50.980;13.850;2022-09-09T07:39:56;21.50;99.90
19000;DHT22;9633;50.980;13.850;2022-09-09T07:41:33;21.80;99.90
19000;DHT22;9633;50.980;13.850;2022-09-09T07:43:06;22.10;99.90
19000;DHT22;9633;50.980;13.850;2022-09-09T07:44:41;22.10;99.90
19000;DHT22;9633;50.980;13.850;2022-09-09T07:46:23;22.00;99.90
19000;DHT22;9633;50.980;13.850;2022-09-09T07:47:56;21.70;99.90
19000;DHT22;9633;50.980;13.850;2022-09-09T07:49:30;21.50;99.90
19000;DHT22;9633;50.980;13.850;2022-09-09T07:51:07;21.80;99.90
19000;DHT22;9633;50.980;13.850;2022-09-09T07:52:40;22.20;99.90
19000;DHT22;9633;50.980;13.850;2022-09-09T07:54:16;22.40;99.90
19000;DHT22;9633;50.980;13.850;2022-09-09T07:55:53;22.30;99.90
19000;DHT22;9633;50.980;13.850;2022-09-09T07:57:28;22.20;99.90
19000;DHT22;9633;50.980;13.850;2022-09-09T07:59:02;22.10;99.90
19000;DHT22;9633;50.980;13.850;2022-09-09T08:00:36;22.10;99.90
19000;DHT22;9633;50.980;13.850;2022-09-09T08:02:11;22.00;99.90
19000;DHT22;9633;50.980;13.850;2022-09-09T08:03:45;22.10;99.90
19000;DHT22;9633;50.980;13.850;2022-09-09T08:05:17;22.20;99.90
19000;DHT22;9633;50.980;13.850;2022-09-09T08:06:54;22.30;99.90
19000;DHT22;9633;50.980;13.850;2022-09-09T08:08:29;22.80;99.90
19000;DHT22;9633;50.980;13.850;2022-09-09T08:10:03;23.20;99.90
19000;DHT22;9633;50.980;13.850;2022-09-09T08:11:40;23.50;98.50
19000;DHT22;9633;50.980;13.850;2022-09-09T08:13:13;23.70;1.00
19000;DHT22;9633;50.980;13.850;2022-09-09T08:14:50;23.60;1.00
19000;DHT22;9633;50.980;13.850;2022-09-09T08:16:29;23.70;1.00
19000;DHT22;9633;50.980;13.850;2022-09-09T08:18:05;23.60;55.00
19000;DHT22;9633;50.980;13.850;2022-09-09T08:19:39;23.50;91.40
19000;DHT22;9633;50.980;13.850;2022-09-09T08:21:19;23.50;26.40
19000;DHT22;9633;50.980;13.850;2022-09-09T08:22:54;23.10;56.10
19000;DHT22;9633;50.980;13.850;2022-09-09T08:24:27;23.20;78.70
19000;DHT22;9633;50.980;13.850;2022-09-09T08:26:05;23.40;99.90
19000;DHT22;9633;50.980;13.850;2022-09-09T08:27:39;23.40;99.90
19000;DHT22;9633;50.980;13.850;2022-09-09T08:29:12;23.10;99.90
19000;DHT22;9633;50.980;13.850;2022-09-09T08:30:46;22.50;99.90
19000;DHT22;9633;50.980;13.850;2022-09-09T08:32:20;21.80;99.90
19000;DHT22;9633;50.980;13.850;2022-09-09T08:33:55;21.20;99.90
19000;DHT22;9633;50.980;13.850;2022-09-09T08:35:29;20.70;99.90
19000;DHT22;9633;50.980;13.850;2022-09-09T08:37:04;20.40;99.90
19000;DHT22;9633;50.980;13.850;2022-09-09T08:38:43;20.40;99.90
19000;DHT22;9633;50.980;13.850;2022-09-09T08:40:25;20.50;99.90
19000;DHT22;9633;50.980;13.850;2022-09-09T08:42:22;20.70;99.90
19000;DHT22;9633;50.980;13.850;2022-09-09T08:44:04;21.00;99.90
19000;DHT22;9633;50.980;13.850;2022-09-09T08:45:48;21.00;99.90
19000;DHT22;9633;50.980;13.850;2022-09-09T08:47:26;21.20;99.90
19000;DHT22;9633;50.980;13.850;2022-09-09T08:49:17;21.30;99.90
19000;DHT22;9633;50.980;13.850;2022-09-09T08:50:53;21.30;99.90
19000;DHT22;9633;50.980;13.850;2022-09-09T08:52:38;21.30;99.90
19000;DHT22;9633;50.980;13.850;2022-09-09T08:54:13;21.30;99.90
19000;DHT22;9633;50.980;13.850;2022-09-09T08:56:11;21.30;99.90
19000;DHT22;9633;50.980;13.850;2022-09-09T08:57:57;21.30;99.90
19000;DHT22;9633;50.980;13.850;2022-09-09T08:59:33;21.30;99.90
19000;DHT22;9633;50.980;13.850;2022-09-09T09:03:18;21.20;99.90
19000;DHT22;9633;50.980;13.850;2022-09-09T09:05:15;21.30;99.90
19000;DHT22;9633;50.980;13.850;2022-09-09T09:07:07;21.30;99.90
19000;DHT22;9633;50.980;13.850;2022-09-09T09:08:48;21.40;99.90
19000;DHT22;9633;50.980;13.850;2022-09-09T09:10:33;21.50;99.90
19000;DHT22;9633;50.980;13.850;2022-09-09T09:12:18;21.50;99.90
19000;DHT22;9633;50.980;13.850;2022-09-09T09:13:56;21.30;99.90
19000;DHT22;9633;50.980;13.850;2022-09-09T09:15:35;21.30;99.90
19000;DHT22;9633;50.980;13.850;2022-09-09T09:17:13;21.20;99.90
19000;DHT22;9633;50.980;13.850;2022-09-09T09:18:47;21.10;99.90
19000;DHT22;9633;50.980;13.850;2022-09-09T09:20:32;21.00;99.90
19000;DHT22;9633;50.980;13.850;2022-09-09T09:22:14;21.00;99.90
19000;DHT22;9633;50.980;13.850;2022-09-09T09:23:55;21.00;99.90
19000;DHT22;9633;50.980;13.850;2022-09-09T09:25:35;21.10;99.90
19000;DHT22;9633;50.980;13.850;2022-09-09T09:27:13;21.40;99.90
19000;DHT22;9633;50.980;13.850;2022-09-09T09:28:55;21.50;99.90
19000;DHT22;9633;50.980;13.850;2022-09-09T09:30:34;21.50;99.90
19000;DHT22;9633;50.980;13.850;2022-09-09T09:32:15;21.30;99.90
19000;DHT22;9633;50.980;13.850;2022-09-09T09:33:50;21.00;99.90
19000;DHT22;9633;50.980;13.850;2022-09-09T09:35:28;20.60;99.90
19000;DHT22;9633;50.980;13.850;2022-09-09T09:37:02;20.40;99.90
19000;DHT22;9633;50.980;13.850;2022-09-09T09:38:55;20.30;99.90
19000;DHT22;9633;50.980;13.850;2022-09-09T09:40:51;20.50;99.90
19000;DHT22;9633;50.980;13.850;2022-09-09T09:42:28;20.40;99.90
19000;DHT22;9633;50.980;13.850;2022-09-09T09:44:03;20.50;99.90
19000;DHT22;9633;50.980;13.850;2022-09-09T09:45:41;20.40;99.90
19000;DHT22;9633;50.980;13.850;2022-09-09T09:47:32;20.20;99.90
19000;DHT22;9633;50.980;13.850;2022-09-09T09:49:16;20.10;99.90
19000;DHT22;9633;50.980;13.850;2022-09-09T09:50:53;19.80;99.90
19000;DHT22;9633;50.980;13.850;2022-09-09T09:52:28;19.40;99.90
19000;DHT22;9633;50.980;13.850;2022-09-09T09:54:22;19.30;99.90
19000;DHT22;9633;50.980;13.850;2022-09-09T09:56:05;19.30;99.90
19000;DHT22;9633;50.980;13.850;2022-09-09T09:57:38;19.50;99.90
19000;DHT22;9633;50.980;13.850;2022-09-09T09:59:22;19.90;99.90
19000;DHT22;9633;50.980;13.850;2022-09-09T10:01:21;20.70;99.90
19000;DHT22;9633;50.980;13.850;2022-09-09T10:02:56;21.40;99.90
19000;DHT22;9633;50.980;13.850;2022-09-09T10:04:32;21.90;99.90
19000;DHT22;9633;50.980;13.850;2022-09-09T10:06:07;22.50;99.90
19000;DHT22;9633;50.980;13.850;2022-09-09T10:07:40;23.30;99.90
19000;DHT22;9633;50.980;13.850;2022-09-09T10:09:22;23.80;99.90
19000;DHT22;9633;50.980;13.850;2022-09-09T10:11:17;24.30;99.90
19000;DHT22;9633;50.980;13.850;2022-09-09T10:13:02;24.70;99.90
19000;DHT22;9633;50.980;13.850;2022-09-09T10:14:44;25.70;20.60
19000;DHT22;9633;50.980;13.850;2022-09-09T10:16:31;26.10;1.00
19000;DHT22;9633;50.980;13.850;2022-09-09T10:18:26;26.60;1.00
19000;DHT22;9633;50.980;13.850;2022-09-09T10:20:21;26.40;1.00